createdAt,value
2022-08-27T00:00:14.548Z,99.90
2022-08-27T00:02:45.723Z,99.90
2022-08-27T00:08:02.414Z,99.90
2022-08-27T00:10:33.654Z,99.90
2022-08-27T00:13:01.424Z,99.90
2022-08-27T00:15:34.423Z,99.90
2022-08-27T00:18:01.430Z,99.90
2022-08-27T00:20:31.354Z,99.90
2022-08-27T00:23:01.175Z,99.90
2022-08-27T00:25:32.170Z,99.90
2022-08-27T00:28:02.583Z,99.90
2022-08-27T00:30:32.228Z,99.90
2022-08-27T00:33:07.709Z,99.90
2022-08-27T00:35:38.339Z,99.90
2022-08-27T00:38:08.364Z,99.90
2022-08-27T00:40:35.621Z,99.90
2022-08-27T00:43:04.203Z,99.90
2022-08-27T00:45:39.599Z,99.90
2022-08-27T00:48:18.312Z,99.90
2022-08-27T00:50:53.043Z,99.90
2022-08-27T00:53:36.974Z,99.90
2022-08-27T00:56:31.929Z,99.90
2022-08-27T00:59:04.564Z,99.90
2022-08-27T01:01:35.822Z,99.90
2022-08-27T01:04:06.883Z,99.90
2022-08-27T01:06:42.496Z,99.90
2022-08-27T01:09:23.634Z,99.90
2022-08-27T01:12:00.023Z,99.90
2022-08-27T01:14:35.009Z,99.90
2022-08-27T01:17:06.373Z,99.90
2022-08-27T01:20:03.424Z,99.90
2022-08-27T01:23:10.207Z,99.90
2022-08-27T01:25:40.683Z,99.90
2022-08-27T01:28:21.832Z,99.90
2022-08-27T01:30:53.403Z,99.90
2022-08-27T01:33:21.905Z,99.90
2022-08-27T01:35:51.324Z,99.90
2022-08-27T01:38:30.996Z,99.90
2022-08-27T01:41:00.674Z,99.90
2022-08-27T01:43:29.251Z,99.90
2022-08-27T01:45:56.254Z,99.90
2022-08-27T01:48:23.854Z,99.90
2022-08-27T01:50:51.134Z,99.90
2022-08-27T01:53:24.279Z,99.90
2022-08-27T01:55:52.593Z,99.90
2022-08-27T01:58:21.994Z,99.90
2022-08-27T02:00:54.720Z,99.90
2022-08-27T02:03:24.600Z,99.90
2022-08-27T02:05:52.343Z,99.90
2022-08-27T02:08:19.774Z,99.90
2022-08-27T02:10:48.723Z,99.90
2022-08-27T02:13:16.419Z,99.90
2022-08-27T02:15:45.113Z,99.90
2022-08-27T02:18:13.609Z,99.90
2022-08-27T02:20:41.369Z,99.90
2022-08-27T02:23:09.159Z,99.90
2022-08-27T02:25:36.979Z,99.90
2022-08-27T02:28:05.974Z,99.90
2022-08-27T02:30:34.735Z,99.90
2022-08-27T02:33:03.350Z,99.90
2022-08-27T02:35:32.734Z,99.90
2022-08-27T02:38:01.749Z,99.90
2022-08-27T02:40:29.773Z,99.90
2022-08-27T02:42:57.028Z,99.90
2022-08-27T02:45:24.184Z,99.90
2022-08-27T02:47:51.233Z,99.90
2022-08-27T02:50:18.664Z,99.90
2022-08-27T02:52:46.395Z,99.90
2022-08-27T02:55:17.192Z,99.90
2022-08-27T02:57:45.230Z,99.90
2022-08-27T03:00:16.650Z,99.90
2022-08-27T03:02:44.382Z,99.90
2022-08-27T03:05:13.484Z,99.90
2022-08-27T03:07:41.414Z,99.90
2022-08-27T03:10:10.255Z,99.90
2022-08-27T03:12:37.774Z,99.90
2022-08-27T03:15:06.675Z,99.90
2022-08-27T03:17:52.289Z,99.90
2022-08-27T03:20:19.568Z,99.90
2022-08-27T03:22:46.928Z,99.90
2022-08-27T03:25:14.306Z,99.90
2022-08-27T03:27:41.610Z,99.90
2022-08-27T03:30:13.665Z,99.90
2022-08-27T03:32:40.809Z,99.90
2022-08-27T03:35:08.770Z,99.90
2022-08-27T03:37:36.322Z,99.90
2022-08-27T03:40:05.556Z,99.90
2022-08-27T03:42:32.613Z,99.90
2022-08-27T03:44:59.689Z,99.90
2022-08-27T03:47:26.879Z,99.90
2022-08-27T03:49:54.355Z,99.90
2022-08-27T03:52:21.453Z,99.90
2022-08-27T03:54:48.516Z,99.90
2022-08-27T03:57:15.578Z,99.90
2022-08-27T03:59:42.725Z,99.90
2022-08-27T04:02:09.914Z,99.90
2022-08-27T04:04:37.300Z,99.90
2022-08-27T04:07:05.015Z,99.90
2022-08-27T04:09:32.143Z,99.90
2022-08-27T04:11:59.179Z,99.90
2022-08-27T04:14:27.406Z,99.90
2022-08-27T04:16:56.769Z,99.90
2022-08-27T04:19:28.135Z,99.90
2022-08-27T04:22:00.805Z,99.90
2022-08-27T04:24:29.239Z,99.90
2022-08-27T04:26:56.354Z,99.90
2022-08-27T04:29:24.274Z,99.90
2022-08-27T04:31:51.838Z,99.90
2022-08-27T04:34:19.469Z,99.90
2022-08-27T04:36:46.794Z,99.90
2022-08-27T04:39:14.805Z,99.90
2022-08-27T04:41:42.057Z,99.90
2022-08-27T04:44:11.289Z,99.90
2022-08-27T04:46:40.709Z,99.90
2022-08-27T04:49:13.888Z,99.90
2022-08-27T04:51:43.388Z,99.90
2022-08-27T04:54:11.354Z,99.90
2022-08-27T04:56:39.365Z,99.90
2022-08-27T04:59:08.912Z,99.90
2022-08-27T05:01:37.574Z,99.90
2022-08-27T05:04:05.374Z,99.90
2022-08-27T05:06:33.904Z,99.90
2022-08-27T05:09:00.956Z,99.90
2022-08-27T05:11:32.604Z,99.90
2022-08-27T05:14:01.564Z,99.90
2022-08-27T05:16:28.632Z,99.90
2022-08-27T05:18:56.249Z,99.90
2022-08-27T05:21:27.536Z,99.90
2022-08-27T05:23:56.629Z,99.90
2022-08-27T05:26:23.960Z,99.90
2022-08-27T05:28:51.529Z,99.90
2022-08-27T05:31:20.412Z,99.90
2022-08-27T05:33:48.809Z,99.90
2022-08-27T05:36:22.574Z,99.90
2022-08-27T05:38:50.695Z,99.90
2022-08-27T05:41:22.290Z,99.90
2022-08-27T05:43:50.716Z,99.90
2022-08-27T05:46:21.256Z,99.90
2022-08-27T05:48:50.519Z,99.90
2022-08-27T05:51:31.350Z,99.90
2022-08-27T05:54:05.595Z,99.90
2022-08-27T05:56:36.029Z,99.90
2022-08-27T05:59:21.404Z,99.90
2022-08-27T06:01:50.351Z,99.90
2022-08-27T06:04:19.909Z,99.90
2022-08-27T06:06:49.029Z,99.90
2022-08-27T06:09:23.453Z,99.90
2022-08-27T06:11:51.024Z,99.90
2022-08-27T06:14:18.149Z,99.90
2022-08-27T06:16:45.224Z,99.90
2022-08-27T06:19:12.731Z,99.90
2022-08-27T06:21:41.578Z,99.90
2022-08-27T06:24:09.263Z,99.90
2022-08-27T06:26:36.664Z,99.90
2022-08-27T06:29:05.539Z,99.90
2022-08-27T06:31:35.798Z,99.90
2022-08-27T06:34:07.666Z,99.90
2022-08-27T06:36:41.689Z,99.90
2022-08-27T06:39:13.838Z,99.90
2022-08-27T06:41:42.488Z,99.90
2022-08-27T06:44:10.021Z,99.90
2022-08-27T06:46:37.283Z,99.90
2022-08-27T06:49:04.369Z,99.90
2022-08-27T06:51:33.929Z,99.90
2022-08-27T06:54:04.328Z,99.90
2022-08-27T06:56:32.046Z,99.90
2022-08-27T06:59:03.928Z,99.90
2022-08-27T07:01:36.778Z,99.90
2022-08-27T07:04:07.840Z,99.90
2022-08-27T07:06:35.533Z,99.90
2022-08-27T07:09:03.530Z,99.90
2022-08-27T07:11:34.224Z,99.90
2022-08-27T07:14:02.120Z,99.90
2022-08-27T07:16:30.245Z,99.90
2022-08-27T07:19:02.368Z,99.90
2022-08-27T07:21:33.194Z,99.90
2022-08-27T07:24:05.199Z,99.90
2022-08-27T07:26:35.045Z,99.90
2022-08-27T07:29:03.523Z,99.90
2022-08-27T07:31:30.854Z,99.90
2022-08-27T07:33:57.970Z,99.90
2022-08-27T07:36:26.349Z,99.90
2022-08-27T07:38:56.969Z,99.90
2022-08-27T07:41:31.899Z,99.90
2022-08-27T07:44:25.864Z,99.90
2022-08-27T07:46:56.258Z,99.90
2022-08-27T07:49:24.794Z,99.90
2022-08-27T07:51:52.615Z,99.90
2022-08-27T07:54:23.164Z,99.90
2022-08-27T07:56:55.169Z,99.90
2022-08-27T07:59:25.095Z,99.90
2022-08-27T08:01:54.889Z,99.90
2022-08-27T08:04:22.937Z,99.90
2022-08-27T08:06:51.712Z,99.90
2022-08-27T08:09:22.512Z,99.90
2022-08-27T08:11:52.715Z,99.90
2022-08-27T08:14:21.231Z,99.90
2022-08-27T08:16:48.599Z,99.90
2022-08-27T08:19:16.154Z,99.90
2022-08-27T08:21:43.794Z,99.90
2022-08-27T08:24:10.984Z,99.90
2022-08-27T08:26:38.084Z,99.90
2022-08-27T08:29:05.427Z,99.90
2022-08-27T08:31:33.229Z,99.90
2022-08-27T08:34:00.405Z,99.90
2022-08-27T08:36:27.510Z,99.90
2022-08-27T08:38:55.434Z,99.90
2022-08-27T08:41:31.121Z,99.90
2022-08-27T08:44:04.931Z,99.90
2022-08-27T08:46:58.717Z,99.90
2022-08-27T08:49:38.189Z,99.90
2022-08-27T08:52:30.559Z,99.90
2022-08-27T08:55:21.989Z,99.90
2022-08-27T08:58:09.690Z,99.90
2022-08-27T09:00:39.609Z,99.90
2022-08-27T09:03:08.276Z,99.90
2022-08-27T09:05:39.654Z,99.90
2022-08-27T09:08:34.176Z,99.90
2022-08-27T09:11:16.229Z,99.90
2022-08-27T09:14:23.276Z,99.90
2022-08-27T09:16:50.457Z,99.90
2022-08-27T09:19:24.712Z,99.90
2022-08-27T09:22:03.335Z,99.90
2022-08-27T09:24:53.013Z,99.90
2022-08-27T09:27:22.366Z,99.90
2022-08-27T09:29:55.381Z,99.90
2022-08-27T09:32:28.433Z,99.90
2022-08-27T09:35:00.889Z,99.90
2022-08-27T09:37:38.970Z,99.90
2022-08-27T09:40:32.108Z,99.90
2022-08-27T09:43:20.894Z,99.90
2022-08-27T09:45:54.612Z,99.90
2022-08-27T09:48:33.599Z,99.90
2022-08-27T09:51:06.794Z,99.90
2022-08-27T09:53:45.729Z,99.90
2022-08-27T09:56:39.470Z,99.90
2022-08-27T09:59:13.334Z,99.90
2022-08-27T10:01:54.990Z,99.90
2022-08-27T10:04:33.793Z,99.90
2022-08-27T10:07:23.226Z,99.90
2022-08-27T10:10:23.763Z,99.90
2022-08-27T10:13:18.878Z,99.90
2022-08-27T10:16:01.034Z,99.90
2022-08-27T10:18:45.064Z,99.90
2022-08-27T10:21:25.543Z,99.90
2022-08-27T10:24:13.199Z,99.90
2022-08-27T10:26:52.754Z,99.90
2022-08-27T10:29:45.214Z,99.90
2022-08-27T10:32:31.543Z,99.90
2022-08-27T10:35:12.934Z,99.90
2022-08-27T10:37:57.604Z,99.70
2022-08-27T10:40:57.934Z,99.50
2022-08-27T10:43:44.185Z,99.40
2022-08-27T10:46:27.165Z,99.90
2022-08-27T10:49:09.814Z,99.90
2022-08-27T10:52:17.549Z,98.80
2022-08-27T10:55:10.589Z,99.90
2022-08-27T10:58:00.159Z,98.40
2022-08-27T11:00:48.886Z,98.70
2022-08-27T11:03:49.228Z,97.20
2022-08-27T11:06:28.255Z,98.30
2022-08-27T11:09:07.761Z,98.70
2022-08-27T11:14:39.751Z,98.60
2022-08-27T11:17:34.964Z,99.40
2022-08-27T11:20:12.343Z,99.90
2022-08-27T11:22:55.334Z,98.50
2022-08-27T11:25:22.405Z,97.60
2022-08-27T11:27:53.803Z,97.70
2022-08-27T11:30:40.274Z,98.00
2022-08-27T11:33:36.729Z,98.10
2022-08-27T11:36:41.654Z,97.10
2022-08-27T11:39:17.574Z,97.80
2022-08-27T11:42:02.738Z,98.00
2022-08-27T11:44:30.316Z,97.80
2022-08-27T11:47:22.489Z,97.90
2022-08-27T11:49:54.671Z,97.50
2022-08-27T11:52:36.176Z,97.50
2022-08-27T11:55:21.189Z,97.40
2022-08-27T11:58:24.309Z,97.40
2022-08-27T12:00:53.832Z,97.50
2022-08-27T12:03:23.717Z,98.40
2022-08-27T12:05:53.975Z,98.10
2022-08-27T12:08:24.348Z,98.50
2022-08-27T12:10:57.314Z,99.90
2022-08-27T12:13:51.003Z,99.90
2022-08-27T12:16:42.362Z,99.90
2022-08-27T12:19:36.898Z,99.90
2022-08-27T12:22:31.683Z,99.90
2022-08-27T12:24:59.953Z,99.90
2022-08-27T12:27:36.464Z,99.90
2022-08-27T12:30:30.393Z,99.90
2022-08-27T12:32:59.638Z,99.90
2022-08-27T12:35:31.529Z,99.90
2022-08-27T12:38:16.088Z,99.90
2022-08-27T12:41:00.309Z,99.90
2022-08-27T12:43:29.814Z,99.90
2022-08-27T12:46:05.828Z,99.90
2022-08-27T12:48:41.543Z,99.90
2022-08-27T12:51:19.368Z,99.90
2022-08-27T12:53:55.028Z,99.90
2022-08-27T12:56:34.033Z,99.90
2022-08-27T12:59:16.488Z,99.90
2022-08-27T13:02:12.585Z,99.90
2022-08-27T13:04:41.308Z,99.90
2022-08-27T13:07:08.638Z,99.90
2022-08-27T13:09:38.309Z,99.90
2022-08-27T13:12:18.185Z,99.90
2022-08-27T13:14:56.841Z,99.90
2022-08-27T13:17:24.614Z,99.90
2022-08-27T13:20:00.914Z,99.90
2022-08-27T13:22:38.788Z,99.90
2022-08-27T13:25:18.743Z,99.90
2022-08-27T13:27:54.194Z,99.90
2022-08-27T13:30:35.943Z,99.90
2022-08-27T13:33:06.149Z,99.90
2022-08-27T13:35:33.989Z,99.90
2022-08-27T13:38:03.725Z,99.90
2022-08-27T13:40:52.096Z,99.90
2022-08-27T13:43:20.087Z,99.90
2022-08-27T13:45:51.727Z,99.90
2022-08-27T13:48:20.253Z,99.90
2022-08-27T13:50:55.497Z,99.90
2022-08-27T13:53:50.014Z,99.90
2022-08-27T13:56:49.655Z,99.90
2022-08-27T13:59:19.609Z,99.90
2022-08-27T14:02:04.984Z,99.90
2022-08-27T14:05:41.178Z,99.90
2022-08-27T14:08:18.228Z,99.90
2022-08-27T14:10:48.833Z,99.90
2022-08-27T14:13:24.423Z,99.90
2022-08-27T14:15:54.824Z,99.90
2022-08-27T14:18:48.039Z,99.90
2022-08-27T14:21:14.746Z,99.90
2022-08-27T14:23:41.954Z,99.90
2022-08-27T14:26:09.414Z,99.90
2022-08-27T14:28:37.073Z,99.90
2022-08-27T14:31:04.210Z,99.90
2022-08-27T14:33:31.554Z,99.90
2022-08-27T14:36:00.734Z,99.90
2022-08-27T14:38:31.830Z,99.90
2022-08-27T14:40:58.993Z,99.90
2022-08-27T14:43:26.233Z,99.90
2022-08-27T14:45:54.367Z,99.90
2022-08-27T14:48:30.597Z,99.90
2022-08-27T14:50:59.264Z,99.90
2022-08-27T14:53:26.868Z,99.90
2022-08-27T14:55:55.143Z,99.90
2022-08-27T14:58:22.630Z,99.90
2022-08-27T15:00:52.381Z,99.90
2022-08-27T15:03:20.209Z,99.90
2022-08-27T15:05:47.238Z,99.90
2022-08-27T15:08:16.090Z,99.90
2022-08-27T15:10:43.487Z,99.90
2022-08-27T15:13:38.388Z,99.90
2022-08-27T15:16:05.835Z,99.90
2022-08-27T15:18:32.872Z,99.90
2022-08-27T15:21:00.358Z,99.90
2022-08-27T15:23:27.481Z,99.90
2022-08-27T15:25:54.537Z,99.90
2022-08-27T15:28:21.637Z,99.90
2022-08-27T15:30:48.724Z,99.90
2022-08-27T15:33:16.245Z,99.90
2022-08-27T15:35:43.297Z,99.90
2022-08-27T15:38:11.004Z,99.90
2022-08-27T15:40:38.627Z,99.90
2022-08-27T15:43:07.429Z,99.90
2022-08-27T15:45:34.864Z,99.90
2022-08-27T15:48:02.014Z,99.90
2022-08-27T15:50:31.314Z,99.90
2022-08-27T15:53:02.117Z,99.90
2022-08-27T15:55:32.117Z,99.90
2022-08-27T15:58:00.109Z,99.90
2022-08-27T16:00:28.494Z,99.90
2022-08-27T16:02:56.922Z,99.90
2022-08-27T16:05:24.135Z,99.90
2022-08-27T16:07:51.258Z,99.90
2022-08-27T16:10:18.427Z,99.90
2022-08-27T16:12:46.357Z,99.90
2022-08-27T16:15:14.387Z,99.90
2022-08-27T16:17:42.752Z,99.90
2022-08-27T16:20:12.525Z,99.90
2022-08-27T16:22:40.343Z,99.90
2022-08-27T16:25:08.539Z,99.90
2022-08-27T16:27:37.644Z,99.90
2022-08-27T16:30:06.353Z,99.90
2022-08-27T16:32:33.441Z,99.90
2022-08-27T16:35:00.688Z,99.90
2022-08-27T16:37:27.703Z,99.90
2022-08-27T16:39:54.855Z,99.90
2022-08-27T16:42:22.615Z,99.90
2022-08-27T16:44:50.162Z,99.90
2022-08-27T16:47:17.888Z,99.90
2022-08-27T16:50:03.455Z,99.90
2022-08-27T16:52:30.576Z,99.90
2022-08-27T16:54:57.602Z,99.90
2022-08-27T16:57:24.746Z,99.90
2022-08-27T16:59:51.753Z,99.90
2022-08-27T17:02:32.170Z,99.90
2022-08-27T17:05:23.831Z,99.90
2022-08-27T17:07:49.282Z,99.90
2022-08-27T17:10:20.682Z,99.90
2022-08-27T17:12:48.530Z,99.90
2022-08-27T17:15:16.924Z,99.90
2022-08-27T17:17:44.517Z,99.90
2022-08-27T17:20:12.911Z,99.90
2022-08-27T17:22:39.999Z,99.90
2022-08-27T17:25:08.088Z,99.90
2022-08-27T17:27:35.505Z,99.90
2022-08-27T17:30:02.762Z,99.90
2022-08-27T17:32:32.802Z,99.90
2022-08-27T17:35:05.086Z,99.90
2022-08-27T17:37:33.575Z,99.90
2022-08-27T17:40:01.061Z,99.90
2022-08-27T17:42:29.827Z,99.90
2022-08-27T17:44:57.522Z,99.90
2022-08-27T17:47:25.302Z,99.90
2022-08-27T17:49:52.873Z,99.90
2022-08-27T17:52:21.492Z,99.90
2022-08-27T17:54:52.337Z,99.90
2022-08-27T17:57:21.123Z,99.90
2022-08-27T17:59:48.554Z,99.90
2022-08-27T18:02:19.858Z,99.90
2022-08-27T18:04:48.164Z,99.90
2022-08-27T18:07:15.537Z,99.90
2022-08-27T18:09:42.917Z,99.90
2022-08-27T18:12:13.622Z,99.90
2022-08-27T18:14:41.158Z,99.90
2022-08-27T18:17:08.252Z,99.90
2022-08-27T18:19:35.536Z,99.90
2022-08-27T18:22:04.902Z,99.90
2022-08-27T18:24:32.067Z,99.90
2022-08-27T18:26:59.122Z,99.90
2022-08-27T18:29:26.262Z,99.90
2022-08-27T18:31:53.769Z,99.90
2022-08-27T18:34:21.254Z,99.90
2022-08-27T18:36:48.786Z,99.90
2022-08-27T18:39:16.063Z,99.90
2022-08-27T18:41:44.017Z,99.90
2022-08-27T18:44:17.700Z,99.90
2022-08-27T18:46:45.334Z,99.90
2022-08-27T18:49:12.382Z,99.90
2022-08-27T18:51:42.915Z,99.90
2022-08-27T18:54:10.556Z,99.90
2022-08-27T18:56:37.707Z,99.90
2022-08-27T18:59:07.238Z,99.90
2022-08-27T19:01:34.417Z,99.90
2022-08-27T19:04:03.662Z,99.90
2022-08-27T19:06:30.817Z,99.90
2022-08-27T19:08:58.058Z,99.90
2022-08-27T19:11:25.123Z,99.90
2022-08-27T19:13:52.252Z,99.90
2022-08-27T19:16:33.361Z,99.90
2022-08-27T19:19:00.471Z,99.90
2022-08-27T19:21:27.543Z,99.90
2022-08-27T19:23:54.618Z,99.90
2022-08-27T19:26:24.864Z,99.90
2022-08-27T19:28:52.097Z,99.90
2022-08-27T19:31:19.245Z,99.90
2022-08-27T19:33:46.386Z,99.90
2022-08-27T19:36:16.553Z,99.90
2022-08-27T19:38:45.292Z,99.90
2022-08-27T19:41:13.119Z,99.90
2022-08-27T19:43:44.010Z,99.90
2022-08-27T19:46:17.375Z,99.90
2022-08-27T19:48:44.518Z,99.90
2022-08-27T19:51:12.017Z,99.90
2022-08-27T19:53:39.516Z,99.90
2022-08-27T19:56:09.257Z,99.90
2022-08-27T19:58:36.997Z,99.90
2022-08-27T20:01:04.107Z,99.90
2022-08-27T20:03:31.325Z,99.90
2022-08-27T20:05:58.409Z,99.90
2022-08-27T20:08:25.591Z,99.90
2022-08-27T20:10:52.758Z,99.90
2022-08-27T20:13:19.912Z,99.90
2022-08-27T20:15:48.055Z,99.90
2022-08-27T20:18:15.392Z,99.90
2022-08-27T20:20:42.982Z,99.90
2022-08-27T20:23:10.024Z,99.90
2022-08-27T20:25:37.789Z,99.90
2022-08-27T20:28:28.345Z,99.90
2022-08-27T20:30:54.060Z,99.90
2022-08-27T20:33:21.136Z,99.90
2022-08-27T20:35:48.222Z,99.90
2022-08-27T20:38:15.358Z,99.90
2022-08-27T20:40:42.932Z,99.90
2022-08-27T20:43:10.117Z,99.90
2022-08-27T20:45:39.419Z,99.90
2022-08-27T20:48:06.593Z,99.90
2022-08-27T20:50:33.707Z,99.90
2022-08-27T20:53:01.261Z,99.90
2022-08-27T20:55:29.111Z,99.90
2022-08-27T20:58:14.708Z,99.90
2022-08-27T21:00:43.486Z,99.90
2022-08-27T21:03:14.051Z,99.90
2022-08-27T21:05:47.261Z,99.90
2022-08-27T21:08:16.928Z,99.90
2022-08-27T21:10:47.702Z,99.90
2022-08-27T21:13:16.107Z,99.90
2022-08-27T21:15:43.652Z,99.90
2022-08-27T21:18:11.180Z,99.90
2022-08-27T21:20:38.581Z,99.90
2022-08-27T21:23:07.066Z,99.90
2022-08-27T21:25:36.896Z,99.90
2022-08-27T21:28:07.910Z,99.90
2022-08-27T21:30:37.541Z,99.90
2022-08-27T21:33:14.341Z,99.90
2022-08-27T21:35:45.432Z,99.90
2022-08-27T21:38:16.541Z,99.90
2022-08-27T21:40:55.301Z,99.90
2022-08-27T21:43:25.696Z,99.90
2022-08-27T21:45:58.986Z,99.90
2022-08-27T21:48:27.851Z,99.90
2022-08-27T21:50:57.050Z,99.90
2022-08-27T21:53:26.902Z,99.90
2022-08-27T21:55:57.381Z,99.90
2022-08-27T21:58:27.986Z,99.90
2022-08-27T22:00:56.417Z,99.90
2022-08-27T22:03:26.301Z,99.90
2022-08-27T22:05:55.856Z,99.90
2022-08-27T22:08:24.441Z,99.90
2022-08-27T22:10:59.014Z,99.90
2022-08-27T22:13:28.292Z,99.90
2022-08-27T22:15:57.282Z,99.90
2022-08-27T22:18:28.336Z,99.90
2022-08-27T22:21:07.625Z,99.90
2022-08-27T22:23:37.778Z,99.90
2022-08-27T22:26:07.546Z,99.90
2022-08-27T22:28:37.416Z,99.90
2022-08-27T22:31:18.084Z,99.90
2022-08-27T22:33:48.061Z,99.90
2022-08-27T22:36:16.606Z,99.90
2022-08-27T22:38:45.271Z,99.90
2022-08-27T22:41:18.315Z,99.90
2022-08-27T22:43:48.583Z,99.90
2022-08-27T22:46:17.104Z,99.90
2022-08-27T22:48:46.026Z,99.90
2022-08-27T22:51:15.672Z,99.90
2022-08-27T22:53:52.936Z,99.90
2022-08-27T22:56:24.287Z,99.90
2022-08-27T22:58:52.512Z,99.90
2022-08-27T23:04:08.938Z,99.90
2022-08-27T23:06:39.171Z,99.90
2022-08-27T23:09:07.597Z,99.90
2022-08-27T23:11:37.831Z,99.90
2022-08-27T23:14:05.089Z,99.90
2022-08-27T23:16:43.191Z,99.90
2022-08-27T23:19:25.855Z,99.90
2022-08-27T23:21:56.106Z,99.90
2022-08-27T23:24:24.728Z,99.90
2022-08-27T23:27:14.271Z,99.90
2022-08-27T23:29:43.626Z,99.90
2022-08-27T23:32:19.136Z,99.90
2022-08-27T23:34:49.726Z,99.90
2022-08-27T23:37:18.266Z,99.90
2022-08-27T23:39:53.215Z,99.90
2022-08-27T23:42:23.736Z,99.90
2022-08-27T23:44:53.117Z,99.90
2022-08-27T23:47:23.415Z,99.90
2022-08-27T23:50:02.108Z,99.90
2022-08-27T23:52:32.901Z,99.90
2022-08-27T23:55:03.164Z,99.90
2022-08-27T23:57:32.631Z,99.90
